sensor_id;sensor_type;location;lat;lon;timestamp;P1;durP1;ratioP1;P2;durP2;ratioP2
1376;SDS011;682;52.502;13.488;2023-10-13T00:01:20;7.00;;;5.03;;
1376;SDS011;682;52.502;13.488;2023-10-13T00:03:47;6.33;;;4.87;;
1376;SDS011;682;52.502;13.488;2023-10-13T00:06:14;5.43;;;4.50;;
1376;SDS011;682;52.502;13.488;2023-10-13T00:08:41;6.87;;;4.70;;
1376;SDS011;682;52.502;13.488;2023-10-13T00:11:11;6.10;;;4.60;;
1376;SDS011;682;52.502;13.488;2023-10-13T00:13:40;9.73;;;5.33;;
1376;SDS011;682;52.502;13.488;2023-10-13T00:16:08;6.83;;;4.53;;
1376;SDS011;682;52.502;13.488;2023-10-13T00:18:42;5.70;;;5.20;;
1376;SDS011;682;52.502;13.488;2023-10-13T00:21:09;6.37;;;4.57;;
1376;SDS011;682;52.502;13.488;2023-10-13T00:23:41;5.20;;;4.70;;
1376;SDS011;682;52.502;13.488;2023-10-13T00:26:17;5.67;;;4.47;;
1376;SDS011;682;52.502;13.488;2023-10-13T00:28:50;6.03;;;4.30;;
1376;SDS011;682;52.502;13.488;2023-10-13T00:31:24;5.80;;;4.27;;
1376;SDS011;682;52.502;13.488;2023-10-13T00:33:57;9.70;;;7.10;;
1376;SDS011;682;52.502;13.488;2023-10-13T00:36:28;10.80;;;5.27;;
1376;SDS011;682;52.502;13.488;2023-10-13T00:38:57;6.20;;;4.57;;
1376;SDS011;682;52.502;13.488;2023-10-13T00:41:24;4.87;;;4.20;;
1376;SDS011;682;52.502;13.488;2023-10-13T00:44:16;6.87;;;4.50;;
1376;SDS011;682;52.502;13.488;2023-10-13T00:46:50;5.83;;;4.43;;
1376;SDS011;682;52.502;13.488;2023-10-13T00:49:20;5.93;;;4.43;;
1376;SDS011;682;52.502;13.488;2023-10-13T00:51:48;6.43;;;4.00;;
1376;SDS011;682;52.502;13.488;2023-10-13T00:54:15;6.60;;;4.70;;
1376;SDS011;682;52.502;13.488;2023-10-13T00:56:45;6.97;;;3.83;;
1376;SDS011;682;52.502;13.488;2023-10-13T00:59:13;6.53;;;3.60;;
1376;SDS011;682;52.502;13.488;2023-10-13T01:01:42;6.10;;;4.30;;
1376;SDS011;682;52.502;13.488;2023-10-13T01:04:09;7.90;;;4.30;;
1376;SDS011;682;52.502;13.488;2023-10-13T01:06:37;4.80;;;4.20;;
1376;SDS011;682;52.502;13.488;2023-10-13T01:09:05;4.80;;;3.93;;
1376;SDS011;682;52.502;13.488;2023-10-13T01:11:39;5.03;;;3.67;;
1376;SDS011;682;52.502;13.488;2023-10-13T01:14:09;5.03;;;3.67;;
1376;SDS011;682;52.502;13.488;2023-10-13T01:16:36;6.80;;;4.30;;
1376;SDS011;682;52.502;13.488;2023-10-13T01:19:06;5.07;;;4.13;;
1376;SDS011;682;52.502;13.488;2023-10-13T01:21:32;4.50;;;4.07;;
1376;SDS011;682;52.502;13.488;2023-10-13T01:24:01;6.00;;;4.40;;
1376;SDS011;682;52.502;13.488;2023-10-13T01:26:33;7.40;;;4.60;;
1376;SDS011;682;52.502;13.488;2023-10-13T01:29:04;7.13;;;3.80;;
1376;SDS011;682;52.502;13.488;2023-10-13T01:31:40;5.73;;;4.83;;
1376;SDS011;682;52.502;13.488;2023-10-13T01:34:12;5.47;;;3.97;;
1376;SDS011;682;52.502;13.488;2023-10-13T01:36:44;6.60;;;4.53;;
1376;SDS011;682;52.502;13.488;2023-10-13T01:39:13;6.60;;;4.43;;
1376;SDS011;682;52.502;13.488;2023-10-13T01:41:41;9.73;;;5.50;;
1376;SDS011;682;52.502;13.488;2023-10-13T01:44:08;5.70;;;5.13;;
1376;SDS011;682;52.502;13.488;2023-10-13T01:46:36;6.40;;;4.70;;
1376;SDS011;682;52.502;13.488;2023-10-13T01:49:03;9.93;;;5.50;;
1376;SDS011;682;52.502;13.488;2023-10-13T01:51:29;10.03;;;4.87;;
1376;SDS011;682;52.502;13.488;2023-10-13T01:53:56;7.43;;;5.30;;
1376;SDS011;682;52.502;13.488;2023-10-13T01:56:24;8.00;;;5.77;;
1376;SDS011;682;52.502;13.488;2023-10-13T01:58:55;14.83;;;5.60;;
1376;SDS011;682;52.502;13.488;2023-10-13T02:01:21;10.17;;;5.43;;
1376;SDS011;682;52.502;13.488;2023-10-13T02:03:52;15.53;;;5.87;;
1376;SDS011;682;52.502;13.488;2023-10-13T02:06:28;9.03;;;5.90;;
1376;SDS011;682;52.502;13.488;2023-10-13T02:08:58;8.70;;;5.50;;
1376;SDS011;682;52.502;13.488;2023-10-13T02:11:37;8.83;;;6.17;;
1376;SDS011;682;52.502;13.488;2023-10-13T02:14:03;7.30;;;5.60;;
1376;SDS011;682;52.502;13.488;2023-10-13T02:16:30;10.80;;;6.23;;
1376;SDS011;682;52.502;13.488;2023-10-13T02:18:56;9.43;;;6.33;;
1376;SDS011;682;52.502;13.488;2023-10-13T02:21:29;10.90;;;6.23;;
1376;SDS011;682;52.502;13.488;2023-10-13T02:23:56;12.60;;;6.27;;
1376;SDS011;682;52.502;13.488;2023-10-13T02:26:26;16.40;;;7.60;;
1376;SDS011;682;52.502;13.488;2023-10-13T02:29:05;10.60;;;6.10;;
1376;SDS011;682;52.502;13.488;2023-10-13T02:31:34;13.73;;;7.07;;
1376;SDS011;682;52.502;13.488;2023-10-13T02:34:00;11.93;;;6.40;;
1376;SDS011;682;52.502;13.488;2023-10-13T02:36:31;9.77;;;6.63;;
1376;SDS011;682;52.502;13.488;2023-10-13T02:39:01;14.03;;;7.67;;
1376;SDS011;682;52.502;13.488;2023-10-13T02:41:32;9.43;;;7.03;;
1376;SDS011;682;52.502;13.488;2023-10-13T02:44:02;12.50;;;7.57;;
1376;SDS011;682;52.502;13.488;2023-10-13T02:46:32;8.90;;;6.83;;
1376;SDS011;682;52.502;13.488;2023-10-13T02:49:01;10.60;;;6.60;;
1376;SDS011;682;52.502;13.488;2023-10-13T02:51:35;8.37;;;6.50;;
1376;SDS011;682;52.502;13.488;2023-10-13T02:54:01;12.10;;;7.50;;
1376;SDS011;682;52.502;13.488;2023-10-13T02:56:34;10.47;;;6.73;;
1376;SDS011;682;52.502;13.488;2023-10-13T02:59:01;10.73;;;7.57;;
1376;SDS011;682;52.502;13.488;2023-10-13T03:01:31;13.00;;;7.43;;
1376;SDS011;682;52.502;13.488;2023-10-13T03:03:59;14.90;;;9.17;;
1376;SDS011;682;52.502;13.488;2023-10-13T03:06:26;9.30;;;7.83;;
1376;SDS011;682;52.502;13.488;2023-10-13T03:08:58;12.33;;;8.20;;
1376;SDS011;682;52.502;13.488;2023-10-13T03:11:38;10.00;;;7.93;;
1376;SDS011;682;52.502;13.488;2023-10-13T03:14:07;13.20;;;8.27;;
1376;SDS011;682;52.502;13.488;2023-10-13T03:16:35;11.53;;;8.80;;
1376;SDS011;682;52.502;13.488;2023-10-13T03:19:02;14.27;;;8.77;;
1376;SDS011;682;52.502;13.488;2023-10-13T03:21:32;13.87;;;8.80;;
1376;SDS011;682;52.502;13.488;2023-10-13T03:24:02;10.10;;;9.10;;
1376;SDS011;682;52.502;13.488;2023-10-13T03:26:31;13.73;;;10.80;;
1376;SDS011;682;52.502;13.488;2023-10-13T03:29:01;16.03;;;10.73;;
1376;SDS011;682;52.502;13.488;2023-10-13T03:31:29;11.63;;;8.83;;
1376;SDS011;682;52.502;13.488;2023-10-13T03:34:03;11.70;;;9.70;;
1376;SDS011;682;52.502;13.488;2023-10-13T03:36:34;16.03;;;10.37;;
1376;SDS011;682;52.502;13.488;2023-10-13T03:39:19;12.63;;;10.33;;
1376;SDS011;682;52.502;13.488;2023-10-13T03:41:52;12.70;;;11.40;;
1376;SDS011;682;52.502;13.488;2023-10-13T03:44:19;11.50;;;10.23;;
1376;SDS011;682;52.502;13.488;2023-10-13T03:46:47;16.57;;;10.83;;
1376;SDS011;682;52.502;13.488;2023-10-13T03:49:16;15.53;;;13.60;;
1376;SDS011;682;52.502;13.488;2023-10-13T03:51:46;14.90;;;11.10;;
1376;SDS011;682;52.502;13.488;2023-10-13T03:54:14;15.90;;;13.50;;
1376;SDS011;682;52.502;13.488;2023-10-13T03:56:42;15.93;;;12.00;;
1376;SDS011;682;52.502;13.488;2023-10-13T03:59:10;15.63;;;11.60;;
1376;SDS011;682;52.502;13.488;2023-10-13T04:01:44;13.97;;;12.00;;
1376;SDS011;682;52.502;13.488;2023-10-13T04:04:12;17.00;;;11.97;;
1376;SDS011;682;52.502;13.488;2023-10-13T04:06:42;19.30;;;13.30;;
1376;SDS011;682;52.502;13.488;2023-10-13T04:09:38;13.17;;;11.00;;
1376;SDS011;682;52.502;13.488;2023-10-13T04:12:40;18.70;;;13.30;;
1376;SDS011;682;52.502;13.488;2023-10-13T04:15:24;20.27;;;14.57;;
1376;SDS011;682;52.502;13.488;2023-10-13T04:18:02;17.90;;;14.70;;
1376;SDS011;682;52.502;13.488;2023-10-13T04:20:39;20.73;;;14.83;;
1376;SDS011;682;52.502;13.488;2023-10-13T04:23:12;16.13;;;13.57;;
1376;SDS011;682;52.502;13.488;2023-10-13T04:25:47;16.63;;;11.90;;
1376;SDS011;682;52.502;13.488;2023-10-13T04:28:32;17.90;;;14.17;;
1376;SDS011;682;52.502;13.488;2023-10-13T04:31:15;20.77;;;15.40;;
1376;SDS011;682;52.502;13.488;2023-10-13T04:34:11;20.27;;;15.90;;
1376;SDS011;682;52.502;13.488;2023-10-13T04:36:52;18.13;;;14.40;;
1376;SDS011;682;52.502;13.488;2023-10-13T04:39:37;21.33;;;15.27;;
1376;SDS011;682;52.502;13.488;2023-10-13T04:42:04;17.47;;;15.10;;
1376;SDS011;682;52.502;13.488;2023-10-13T04:44:39;17.83;;;14.57;;
1376;SDS011;682;52.502;13.488;2023-10-13T04:47:13;19.10;;;15.40;;
1376;SDS011;682;52.502;13.488;2023-10-13T04:49:47;20.37;;;15.40;;
1376;SDS011;682;52.502;13.488;2023-10-13T04:52:18;17.93;;;15.97;;
1376;SDS011;682;52.502;13.488;2023-10-13T04:55:05;18.90;;;15.40;;
1376;SDS011;682;52.502;13.488;2023-10-13T04:58:08;20.20;;;17.73;;
1376;SDS011;682;52.502;13.488;2023-10-13T05:00:40;16.90;;;15.10;;
1376;SDS011;682;52.502;13.488;2023-10-13T05:03:21;17.70;;;15.70;;
1376;SDS011;682;52.502;13.488;2023-10-13T05:06:17;18.43;;;15.77;;
1376;SDS011;682;52.502;13.488;2023-10-13T05:09:02;19.00;;;16.90;;
1376;SDS011;682;52.502;13.488;2023-10-13T05:11:48;21.60;;;17.93;;
1376;SDS011;682;52.502;13.488;2023-10-13T05:14:32;18.30;;;15.73;;
1376;SDS011;682;52.502;13.488;2023-10-13T05:17:17;21.77;;;16.80;;
1376;SDS011;682;52.502;13.488;2023-10-13T05:20:01;19.70;;;16.67;;
1376;SDS011;682;52.502;13.488;2023-10-13T05:22:46;18.67;;;16.67;;
1376;SDS011;682;52.502;13.488;2023-10-13T05:25:30;20.17;;;16.37;;
1376;SDS011;682;52.502;13.488;2023-10-13T05:28:19;17.10;;;15.40;;
1376;SDS011;682;52.502;13.488;2023-10-13T05:31:04;19.43;;;15.80;;
1376;SDS011;682;52.502;13.488;2023-10-13T05:33:48;21.03;;;17.13;;
1376;SDS011;682;52.502;13.488;2023-10-13T05:36:33;18.30;;;16.37;;
1376;SDS011;682;52.502;13.488;2023-10-13T05:39:18;19.30;;;17.30;;
1376;SDS011;682;52.502;13.488;2023-10-13T05:42:02;17.70;;;15.90;;
1376;SDS011;682;52.502;13.488;2023-10-13T05:44:48;16.63;;;14.93;;
1376;SDS011;682;52.502;13.488;2023-10-13T05:47:29;21.37;;;17.53;;
1376;SDS011;682;52.502;13.488;2023-10-13T05:50:15;18.83;;;16.50;;
1376;SDS011;682;52.502;13.488;2023-10-13T05:53:14;17.90;;;16.00;;
1376;SDS011;682;52.502;13.488;2023-10-13T05:56:02;19.27;;;17.03;;
1376;SDS011;682;52.502;13.488;2023-10-13T05:58:47;16.97;;;15.20;;
1376;SDS011;682;52.502;13.488;2023-10-13T06:01:33;18.93;;;15.63;;
1376;SDS011;682;52.502;13.488;2023-10-13T06:04:17;17.60;;;14.67;;
1376;SDS011;682;52.502;13.488;2023-10-13T06:07:02;17.40;;;15.57;;
1376;SDS011;682;52.502;13.488;2023-10-13T06:09:46;16.73;;;15.13;;
1376;SDS011;682;52.502;13.488;2023-10-13T06:12:31;20.50;;;16.80;;
1376;SDS011;682;52.502;13.488;2023-10-13T06:15:15;18.20;;;15.63;;
1376;SDS011;682;52.502;13.488;2023-10-13T06:18:01;17.83;;;15.93;;
1376;SDS011;682;52.502;13.488;2023-10-13T06:20:45;16.90;;;15.40;;
1376;SDS011;682;52.502;13.488;2023-10-13T06:23:30;20.63;;;15.70;;
1376;SDS011;682;52.502;13.488;2023-10-13T06:26:15;18.83;;;15.67;;
1376;SDS011;682;52.502;13.488;2023-10-13T06:28:59;17.27;;;15.60;;
1376;SDS011;682;52.502;13.488;2023-10-13T06:31:26;17.30;;;15.50;;
1376;SDS011;682;52.502;13.488;2023-10-13T06:33:55;18.37;;;16.30;;
1376;SDS011;682;52.502;13.488;2023-10-13T06:36:21;17.93;;;16.20;;
1376;SDS011;682;52.502;13.488;2023-10-13T06:38:48;18.20;;;16.30;;
1376;SDS011;682;52.502;13.488;2023-10-13T06:41:41;18.10;;;16.17;;
1376;SDS011;682;52.502;13.488;2023-10-13T06:44:08;18.67;;;15.93;;
1376;SDS011;682;52.502;13.488;2023-10-13T06:46:40;17.90;;;15.53;;
1376;SDS011;682;52.502;13.488;2023-10-13T06:49:09;17.17;;;15.37;;
1376;SDS011;682;52.502;13.488;2023-10-13T06:51:38;20.13;;;16.43;;
1376;SDS011;682;52.502;13.488;2023-10-13T06:54:05;17.57;;;15.13;;
1376;SDS011;682;52.502;13.488;2023-10-13T06:56:38;17.33;;;15.30;;
1376;SDS011;682;52.502;13.488;2023-10-13T06:59:05;16.70;;;15.10;;
1376;SDS011;682;52.502;13.488;2023-10-13T07:01:32;16.10;;;14.40;;
1376;SDS011;682;52.502;13.488;2023-10-13T07:04:03;18.20;;;16.03;;
1376;SDS011;682;52.502;13.488;2023-10-13T07:06:39;18.40;;;13.70;;
1376;SDS011;682;52.502;13.488;2023-10-13T07:09:20;18.37;;;15.03;;
1376;SDS011;682;52.502;13.488;2023-10-13T07:12:05;16.10;;;14.30;;
1376;SDS011;682;52.502;13.488;2023-10-13T07:14:44;15.03;;;13.63;;
1376;SDS011;682;52.502;13.488;2023-10-13T07:17:17;15.30;;;13.83;;
1376;SDS011;682;52.502;13.488;2023-10-13T07:19:49;15.47;;;13.10;;
1376;SDS011;682;52.502;13.488;2023-10-13T07:22:21;13.83;;;12.43;;
1376;SDS011;682;52.502;13.488;2023-10-13T07:24:51;14.27;;;12.73;;
1376;SDS011;682;52.502;13.488;2023-10-13T07:27:18;12.60;;;11.30;;
1376;SDS011;682;52.502;13.488;2023-10-13T07:29:49;16.13;;;12.30;;
1376;SDS011;682;52.502;13.488;2023-10-13T07:32:22;14.00;;;12.50;;
1376;SDS011;682;52.502;13.488;2023-10-13T07:34:54;12.03;;;10.50;;
1376;SDS011;682;52.502;13.488;2023-10-13T07:37:24;14.90;;;10.97;;
1376;SDS011;682;52.502;13.488;2023-10-13T07:39:54;12.43;;;11.13;;
1376;SDS011;682;52.502;13.488;2023-10-13T07:42:26;13.07;;;11.87;;
1376;SDS011;682;52.502;13.488;2023-10-13T07:44:57;13.97;;;10.63;;
1376;SDS011;682;52.502;13.488;2023-10-13T07:47:24;12.00;;;10.63;;
1376;SDS011;682;52.502;13.488;2023-10-13T07:49:53;10.83;;;9.73;;
1376;SDS011;682;52.502;13.488;2023-10-13T07:52:22;12.80;;;10.47;;
1376;SDS011;682;52.502;13.488;2023-10-13T07:55:01;11.43;;;10.20;;
1376;SDS011;682;52.502;13.488;2023-10-13T07:57:39;10.57;;;9.53;;
1376;SDS011;682;52.502;13.488;2023-10-13T08:00:19;14.37;;;10.00;;
1376;SDS011;682;52.502;13.488;2023-10-13T08:03:04;12.67;;;9.90;;
1376;SDS011;682;52.502;13.488;2023-10-13T08:05:57;10.53;;;9.43;;
1376;SDS011;682;52.502;13.488;2023-10-13T08:08:31;10.67;;;9.00;;
1376;SDS011;682;52.502;13.488;2023-10-13T08:11:03;9.50;;;8.60;;
1376;SDS011;682;52.502;13.488;2023-10-13T08:13:36;10.17;;;9.27;;
1376;SDS011;682;52.502;13.488;2023-10-13T08:16:05;10.77;;;9.57;;
1376;SDS011;682;52.502;13.488;2023-10-13T08:18:34;10.83;;;9.23;;
1376;SDS011;682;52.502;13.488;2023-10-13T08:21:06;10.00;;;9.07;;
1376;SDS011;682;52.502;13.488;2023-10-13T08:23:42;9.53;;;8.10;;
1376;SDS011;682;52.502;13.488;2023-10-13T08:26:31;11.63;;;9.90;;
1376;SDS011;682;52.502;13.488;2023-10-13T08:29:22;11.67;;;8.10;;
1376;SDS011;682;52.502;13.488;2023-10-13T08:32:11;9.00;;;8.10;;
1376;SDS011;682;52.502;13.488;2023-10-13T08:35:00;9.50;;;7.70;;
1376;SDS011;682;52.502;13.488;2023-10-13T08:37:47;10.00;;;8.40;;
1376;SDS011;682;52.502;13.488;2023-10-13T08:40:27;9.13;;;7.80;;
1376;SDS011;682;52.502;13.488;2023-10-13T08:43:31;9.87;;;8.77;;
1376;SDS011;682;52.502;13.488;2023-10-13T08:46:08;8.90;;;8.10;;
1376;SDS011;682;52.502;13.488;2023-10-13T08:48:49;9.20;;;8.40;;
1376;SDS011;682;52.502;13.488;2023-10-13T08:51:30;9.20;;;8.27;;
1376;SDS011;682;52.502;13.488;2023-10-13T08:54:10;8.57;;;7.87;;
1376;SDS011;682;52.502;13.488;2023-10-13T08:56:47;9.10;;;8.20;;
1376;SDS011;682;52.502;13.488;2023-10-13T08:59:21;9.00;;;8.10;;
1376;SDS011;682;52.502;13.488;2023-10-13T09:01:58;9.70;;;8.70;;
1376;SDS011;682;52.502;13.488;2023-10-13T09:04:25;9.77;;;8.03;;
1376;SDS011;682;52.502;13.488;2023-10-13T09:06:59;9.03;;;8.23;;
1376;SDS011;682;52.502;13.488;2023-10-13T09:09:33;10.13;;;8.17;;
1376;SDS011;682;52.502;13.488;2023-10-13T09:12:26;8.17;;;7.47;;
1376;SDS011;682;52.502;13.488;2023-10-13T09:15:05;10.37;;;8.17;;
1376;SDS011;682;52.502;13.488;2023-10-13T09:17:45;8.57;;;7.77;;
1376;SDS011;682;52.502;13.488;2023-10-13T09:20:17;9.37;;;8.20;;
1376;SDS011;682;52.502;13.488;2023-10-13T09:23:08;8.13;;;7.37;;
1376;SDS011;682;52.502;13.488;2023-10-13T09:25:37;7.77;;;7.07;;
1376;SDS011;682;52.502;13.488;2023-10-13T09:28:20;8.73;;;7.20;;
1376;SDS011;682;52.502;13.488;2023-10-13T09:30:48;9.47;;;7.63;;
1376;SDS011;682;52.502;13.488;2023-10-13T09:33:19;9.13;;;7.93;;
1376;SDS011;682;52.502;13.488;2023-10-13T09:35:53;9.60;;;7.57;;
1376;SDS011;682;52.502;13.488;2023-10-13T09:38:24;8.20;;;7.50;;
1376;SDS011;682;52.502;13.488;2023-10-13T09:40:51;9.37;;;8.03;;
1376;SDS011;682;52.502;13.488;2023-10-13T09:43:23;8.80;;;8.00;;
1376;SDS011;682;52.502;13.488;2023-10-13T09:45:58;8.73;;;7.80;;
1376;SDS011;682;52.502;13.488;2023-10-13T09:48:31;9.27;;;8.37;;
1376;SDS011;682;52.502;13.488;2023-10-13T09:51:02;10.43;;;7.67;;
1376;SDS011;682;52.502;13.488;2023-10-13T09:53:33;7.87;;;7.13;;
1376;SDS011;682;52.502;13.488;2023-10-13T09:56:03;8.30;;;7.50;;
1376;SDS011;682;52.502;13.488;2023-10-13T09:58:46;10.90;;;8.37;;
1376;SDS011;682;52.502;13.488;2023-10-13T10:01:17;8.83;;;7.93;;
1376;SDS011;682;52.502;13.488;2023-10-13T10:04:05;8.57;;;7.10;;
1376;SDS011;682;52.502;13.488;2023-10-13T10:06:34;8.57;;;7.70;;
1376;SDS011;682;52.502;13.488;2023-10-13T10:09:09;9.10;;;8.20;;
1376;SDS011;682;52.502;13.488;2023-10-13T10:12:01;11.03;;;9.13;;
1376;SDS011;682;52.502;13.488;2023-10-13T10:14:47;8.03;;;7.33;;
1376;SDS011;682;52.502;13.488;2023-10-13T10:17:38;9.37;;;7.50;;
1376;SDS011;682;52.502;13.488;2023-10-13T10:20:07;8.20;;;7.43;;
1376;SDS011;682;52.502;13.488;2023-10-13T10:22:54;14.37;;;12.97;;
1376;SDS011;682;52.502;13.488;2023-10-13T10:25:28;9.23;;;7.77;;
1376;SDS011;682;52.502;13.488;2023-10-13T10:28:00;9.87;;;8.60;;
1376;SDS011;682;52.502;13.488;2023-10-13T10:30:32;8.20;;;7.50;;
1376;SDS011;682;52.502;13.488;2023-10-13T10:33:04;7.80;;;7.13;;
1376;SDS011;682;52.502;13.488;2023-10-13T10:35:37;8.10;;;7.30;;
1376;SDS011;682;52.502;13.488;2023-10-13T10:38:08;9.23;;;7.13;;
1376;SDS011;682;52.502;13.488;2023-10-13T10:40:51;10.30;;;8.70;;
1376;SDS011;682;52.502;13.488;2023-10-13T10:43:26;11.10;;;7.80;;
1376;SDS011;682;52.502;13.488;2023-10-13T10:46:08;7.70;;;7.00;;
1376;SDS011;682;52.502;13.488;2023-10-13T10:48:36;8.40;;;7.10;;
1376;SDS011;682;52.502;13.488;2023-10-13T10:51:08;8.40;;;7.30;;
1376;SDS011;682;52.502;13.488;2023-10-13T10:53:46;9.63;;;8.67;;
1376;SDS011;682;52.502;13.488;2023-10-13T10:56:15;9.37;;;7.60;;
1376;SDS011;682;52.502;13.488;2023-10-13T10:58:50;7.10;;;6.50;;
1376;SDS011;682;52.502;13.488;2023-10-13T11:01:21;9.47;;;7.77;;
1376;SDS011;682;52.502;13.488;2023-10-13T11:03:55;8.67;;;7.83;;
1376;SDS011;682;52.502;13.488;2023-10-13T11:06:24;8.80;;;7.90;;
1376;SDS011;682;52.502;13.488;2023-10-13T11:09:01;13.20;;;8.13;;
1376;SDS011;682;52.502;13.488;2023-10-13T11:11:32;10.10;;;8.77;;
1376;SDS011;682;52.502;13.488;2023-10-13T11:14:00;8.90;;;8.17;;
1376;SDS011;682;52.502;13.488;2023-10-13T11:16:47;10.13;;;8.63;;
1376;SDS011;682;52.502;13.488;2023-10-13T11:19:18;9.17;;;8.23;;
1376;SDS011;682;52.502;13.488;2023-10-13T11:21:54;11.83;;;8.47;;
1376;SDS011;682;52.502;13.488;2023-10-13T11:24:21;9.37;;;8.27;;
1376;SDS011;682;52.502;13.488;2023-10-13T11:26:49;10.10;;;8.33;;
1376;SDS011;682;52.502;13.488;2023-10-13T11:29:17;10.70;;;9.30;;
1376;SDS011;682;52.502;13.488;2023-10-13T11:31:47;9.63;;;8.70;;
1376;SDS011;682;52.502;13.488;2023-10-13T11:34:20;9.47;;;8.47;;
1376;SDS011;682;52.502;13.488;2023-10-13T11:36:47;10.20;;;8.10;;
1376;SDS011;682;52.502;13.488;2023-10-13T11:39:15;11.43;;;9.00;;
1376;SDS011;682;52.502;13.488;2023-10-13T11:41:48;12.07;;;9.33;;
1376;SDS011;682;52.502;13.488;2023-10-13T11:44:19;10.70;;;8.20;;
1376;SDS011;682;52.502;13.488;2023-10-13T11:46:50;9.53;;;8.30;;
1376;SDS011;682;52.502;13.488;2023-10-13T11:49:33;9.63;;;8.60;;
1376;SDS011;682;52.502;13.488;2023-10-13T11:52:02;9.53;;;8.53;;
1376;SDS011;682;52.502;13.488;2023-10-13T11:54:41;9.17;;;7.30;;
1376;SDS011;682;52.502;13.488;2023-10-13T11:57:08;9.97;;;8.33;;
1376;SDS011;682;52.502;13.488;2023-10-13T11:59:35;8.10;;;7.30;;
1376;SDS011;682;52.502;13.488;2023-10-13T12:02:11;10.37;;;7.63;;
1376;SDS011;682;52.502;13.488;2023-10-13T12:04:55;10.23;;;8.40;;
1376;SDS011;682;52.502;13.488;2023-10-13T12:07:24;8.83;;;7.93;;
1376;SDS011;682;52.502;13.488;2023-10-13T12:10:08;11.07;;;7.70;;
1376;SDS011;682;52.502;13.488;2023-10-13T12:12:41;8.53;;;7.63;;
1376;SDS011;682;52.502;13.488;2023-10-13T12:15:11;9.13;;;6.57;;
1376;SDS011;682;52.502;13.488;2023-10-13T12:17:52;8.50;;;7.60;;
1376;SDS011;682;52.502;13.488;2023-10-13T12:20:23;8.90;;;7.20;;
1376;SDS011;682;52.502;13.488;2023-10-13T12:22:59;9.07;;;7.17;;
1376;SDS011;682;52.502;13.488;2023-10-13T12:25:36;8.90;;;7.00;;
1376;SDS011;682;52.502;13.488;2023-10-13T12:28:20;8.70;;;7.63;;
1376;SDS011;682;52.502;13.488;2023-10-13T12:30:48;7.57;;;6.70;;
1376;SDS011;682;52.502;13.488;2023-10-13T12:33:19;8.23;;;7.00;;
1376;SDS011;682;52.502;13.488;2023-10-13T12:35:58;7.10;;;6.40;;
1376;SDS011;682;52.502;13.488;2023-10-13T12:38:40;10.03;;;7.63;;
1376;SDS011;682;52.502;13.488;2023-10-13T12:41:23;11.60;;;8.10;;
1376;SDS011;682;52.502;13.488;2023-10-13T12:44:07;9.83;;;7.67;;
1376;SDS011;682;52.502;13.488;2023-10-13T12:46:52;10.33;;;7.70;;
1376;SDS011;682;52.502;13.488;2023-10-13T12:49:38;8.20;;;6.77;;
1376;SDS011;682;52.502;13.488;2023-10-13T12:52:14;10.57;;;7.20;;
1376;SDS011;682;52.502;13.488;2023-10-13T12:54:44;14.77;;;7.70;;
1376;SDS011;682;52.502;13.488;2023-10-13T12:57:23;8.70;;;7.60;;
1376;SDS011;682;52.502;13.488;2023-10-13T12:59:54;10.40;;;7.03;;
1376;SDS011;682;52.502;13.488;2023-10-13T13:02:21;8.33;;;7.40;;
1376;SDS011;682;52.502;13.488;2023-10-13T13:04:51;9.47;;;6.87;;
1376;SDS011;682;52.502;13.488;2023-10-13T13:07:22;10.33;;;7.00;;
1376;SDS011;682;52.502;13.488;2023-10-13T13:09:54;8.37;;;7.27;;
1376;SDS011;682;52.502;13.488;2023-10-13T13:12:23;9.90;;;7.23;;
1376;SDS011;682;52.502;13.488;2023-10-13T13:14:50;7.80;;;6.47;;
1376;SDS011;682;52.502;13.488;2023-10-13T13:17:20;9.83;;;7.07;;
1376;SDS011;682;52.502;13.488;2023-10-13T13:19:47;8.77;;;7.83;;
1376;SDS011;682;52.502;13.488;2023-10-13T13:22:15;14.63;;;7.27;;
1376;SDS011;682;52.502;13.488;2023-10-13T13:24:43;8.93;;;6.60;;
1376;SDS011;682;52.502;13.488;2023-10-13T13:27:11;8.10;;;6.27;;
1376;SDS011;682;52.502;13.488;2023-10-13T13:29:39;8.90;;;6.70;;
1376;SDS011;682;52.502;13.488;2023-10-13T13:32:07;8.87;;;6.67;;
1376;SDS011;682;52.502;13.488;2023-10-13T13:34:42;7.40;;;6.70;;
1376;SDS011;682;52.502;13.488;2023-10-13T13:37:10;11.23;;;8.30;;
1376;SDS011;682;52.502;13.488;2023-10-13T13:39:40;11.30;;;7.17;;
1376;SDS011;682;52.502;13.488;2023-10-13T13:42:10;9.47;;;6.70;;
1376;SDS011;682;52.502;13.488;2023-10-13T13:44:42;8.70;;;6.97;;
1376;SDS011;682;52.502;13.488;2023-10-13T13:47:11;11.70;;;6.77;;
1376;SDS011;682;52.502;13.488;2023-10-13T13:49:38;11.17;;;6.83;;
1376;SDS011;682;52.502;13.488;2023-10-13T13:52:06;7.97;;;6.57;;
1376;SDS011;682;52.502;13.488;2023-10-13T13:54:33;10.03;;;7.53;;
1376;SDS011;682;52.502;13.488;2023-10-13T13:57:01;8.90;;;7.03;;
1376;SDS011;682;52.502;13.488;2023-10-13T13:59:29;13.03;;;7.47;;
1376;SDS011;682;52.502;13.488;2023-10-13T14:01:59;13.07;;;6.73;;
1376;SDS011;682;52.502;13.488;2023-10-13T14:04:31;12.83;;;6.90;;
1376;SDS011;682;52.502;13.488;2023-10-13T14:06:59;10.10;;;7.70;;
1376;SDS011;682;52.502;13.488;2023-10-13T14:09:31;8.40;;;6.03;;
1376;SDS011;682;52.502;13.488;2023-10-13T14:12:07;9.07;;;6.40;;
1376;SDS011;682;52.502;13.488;2023-10-13T14:14:55;7.53;;;6.37;;
1376;SDS011;682;52.502;13.488;2023-10-13T14:17:22;10.80;;;6.70;;
1376;SDS011;682;52.502;13.488;2023-10-13T14:19:54;11.00;;;6.50;;
1376;SDS011;682;52.502;13.488;2023-10-13T14:22:21;11.33;;;6.23;;
1376;SDS011;682;52.502;13.488;2023-10-13T14:24:50;10.23;;;6.70;;
1376;SDS011;682;52.502;13.488;2023-10-13T14:27:21;11.20;;;7.33;;
1376;SDS011;682;52.502;13.488;2023-10-13T14:29:50;8.80;;;7.23;;
1376;SDS011;682;52.502;13.488;2023-10-13T14:32:19;9.20;;;6.83;;
1376;SDS011;682;52.502;13.488;2023-10-13T14:34:50;11.80;;;7.20;;
1376;SDS011;682;52.502;13.488;2023-10-13T14:37:21;8.37;;;6.43;;
1376;SDS011;682;52.502;13.488;2023-10-13T14:39:54;12.13;;;7.37;;
1376;SDS011;682;52.502;13.488;2023-10-13T14:42:23;8.20;;;6.40;;
1376;SDS011;682;52.502;13.488;2023-10-13T14:44:51;7.87;;;6.10;;
1376;SDS011;682;52.502;13.488;2023-10-13T14:47:21;9.97;;;6.73;;
1376;SDS011;682;52.502;13.488;2023-10-13T14:49:50;11.17;;;6.80;;
1376;SDS011;682;52.502;13.488;2023-10-13T14:52:20;15.50;;;7.17;;
1376;SDS011;682;52.502;13.488;2023-10-13T14:54:47;10.23;;;6.73;;
1376;SDS011;682;52.502;13.488;2023-10-13T14:57:20;13.00;;;7.00;;
1376;SDS011;682;52.502;13.488;2023-10-13T14:59:51;10.90;;;6.60;;
1376;SDS011;682;52.502;13.488;2023-10-13T15:02:18;9.70;;;7.40;;
1376;SDS011;682;52.502;13.488;2023-10-13T15:04:46;11.80;;;7.43;;
1376;SDS011;682;52.502;13.488;2023-10-13T15:07:14;10.80;;;6.97;;
1376;SDS011;682;52.502;13.488;2023-10-13T15:09:42;11.47;;;7.23;;
1376;SDS011;682;52.502;13.488;2023-10-13T15:12:09;12.87;;;7.40;;
1376;SDS011;682;52.502;13.488;2023-10-13T15:14:36;10.30;;;6.70;;
1376;SDS011;682;52.502;13.488;2023-10-13T15:17:05;9.60;;;6.50;;
1376;SDS011;682;52.502;13.488;2023-10-13T15:19:32;9.57;;;7.17;;
1376;SDS011;682;52.502;13.488;2023-10-13T15:22:03;8.60;;;6.80;;
1376;SDS011;682;52.502;13.488;2023-10-13T15:24:32;8.17;;;7.17;;
1376;SDS011;682;52.502;13.488;2023-10-13T15:27:07;15.60;;;7.10;;
1376;SDS011;682;52.502;13.488;2023-10-13T15:29:37;7.77;;;6.40;;
1376;SDS011;682;52.502;13.488;2023-10-13T15:32:06;10.97;;;8.30;;
1376;SDS011;682;52.502;13.488;2023-10-13T15:34:50;9.60;;;7.13;;
1376;SDS011;682;52.502;13.488;2023-10-13T15:37:17;10.53;;;7.60;;
1376;SDS011;682;52.502;13.488;2023-10-13T15:39:45;9.03;;;6.93;;
1376;SDS011;682;52.502;13.488;2023-10-13T15:42:12;10.30;;;7.50;;
1376;SDS011;682;52.502;13.488;2023-10-13T15:44:39;12.67;;;7.23;;